Time;durP1;ratioP1;P1;durP2;ratioP2;P2;SDS_P1;SDS_P2;PMS_P1;PMS_P2;Temp;Humidity;BMP_temperature;BMP_pressure;BME280_temperature;BME280_humidity;BME280_pressure;Samples;Min_cycle;Max_cycle;Signal;HPM_P1;HPM_P2
2022/05/24 00:00:21;;;;;;;4.70;2.67;;;;;;;15.58;100.00;95303.63;5074141;28;21019;-74
2022/05/24 00:02:48;;;;;;;5.13;2.70;;;;;;;15.77;100.00;95315.06;5055990;28;20464;-75
2022/05/24 00:05:15;;;;;;;3.37;2.10;;;;;;;15.51;100.00;95285.00;5052720;28;21011;-75
2022/05/24 00:07:42;;;;;;;2.77;2.17;;;;;;;15.68;100.00;95314.69;5077263;28;20429;-74
2022/05/24 00:10:12;;;;;;;2.87;2.67;;;;;;;15.56;100.00;95294.50;5072677;28;20531;-75
2022/05/24 00:12:39;;;;;;;3.10;2.43;;;;;;;15.46;100.00;95271.28;5072062;28;20889;-75
2022/05/24 00:15:23;;;;;;;6.00;2.50;;;;;;;15.77;100.00;95318.47;5055878;28;20430;-75
2022/05/24 00:17:52;;;;;;;4.03;2.77;;;;;;;15.71;100.00;95316.56;5072099;28;20432;-76
2022/05/24 00:20:21;;;;;;;6.07;2.73;;;;;;;15.51;100.00;95302.88;5071975;28;20447;-76
2022/05/24 00:22:48;;;;;;;2.67;2.40;;;;;;;15.70;100.00;95313.16;5072031;28;20457;-75
2022/05/24 00:25:14;;;;;;;2.57;2.10;;;;;;;15.51;100.00;95270.91;5071961;28;20466;-77
2022/05/24 00:27:41;;;;;;;3.73;2.30;;;;;;;15.65;100.00;95308.22;5072222;28;20527;-76
2022/05/24 00:30:08;;;;;;;4.33;2.60;;;;;;;15.55;100.00;95290.31;5072413;28;20439;-75
2022/05/24 00:32:35;;;;;;;5.97;2.27;;;;;;;15.78;100.00;95316.56;5064701;28;20485;-75
2022/05/24 00:35:02;;;;;;;2.53;2.30;;;;;;;15.46;100.00;95284.59;5052648;28;20432;-75
2022/05/24 00:37:29;;;;;;;3.30;2.60;;;;;;;15.60;100.00;95284.59;5051759;28;20586;-75
2022/05/24 00:39:56;;;;;;;3.53;2.43;;;;;;;15.62;100.00;95303.63;5069391;28;20484;-75
2022/05/24 00:42:27;;;;;;;7.37;2.90;;;;;;;15.51;100.00;95302.88;5071977;28;20444;-75
2022/05/24 00:45:19;;;;;;;4.80;2.40;;;;;;;15.28;100.00;95277.41;5071799;28;20527;-75
2022/05/24 00:47:53;;;;;;;5.80;2.20;;;;;;;15.29;100.00;95284.25;5088390;28;20416;-75
2022/05/24 00:50:26;;;;;;;2.40;1.83;;;;;;;15.26;100.00;95278.94;5055288;28;20925;-77
2022/05/24 00:53:00;;;;;;;7.23;3.53;;;;;;;15.38;100.00;95289.94;5071694;28;20464;-75
2022/05/24 00:55:34;;;;;;;11.13;6.20;;;;;;;15.22;100.00;95280.81;5088985;28;20428;-75
2022/05/24 00:58:10;;;;;;;14.97;6.43;;;;;;;14.86;100.00;95240.16;5055334;28;20458;-75
2022/05/24 01:00:37;;;;;;;12.10;6.10;;;;;;;15.37;100.00;95303.66;5088763;28;20428;-75
2022/05/24 01:03:05;;;;;;;9.30;4.30;;;;;;;15.19;100.00;95282.34;5073030;28;21054;-76
2022/05/24 01:05:32;;;;;;;3.87;2.90;;;;;;;15.33;100.00;95284.22;5051855;28;20548;-75
2022/05/24 01:07:59;;;;;;;5.50;3.27;;;;;;;15.60;100.00;95309.34;5071365;28;20497;-77
2022/05/24 01:10:33;;;;;;;4.17;3.00;;;;;;;15.63;100.00;95305.94;5072022;28;20783;-75
2022/05/24 01:13:09;;;;;;;2.80;2.03;;;;;;;15.75;100.00;95307.41;5071823;28;20467;-75
2022/05/24 01:15:36;;;;;;;3.10;2.73;;;;;;;15.41;100.00;95256.47;5071413;28;20463;-75
2022/05/24 01:18:04;;;;;;;5.00;3.20;;;;;;;15.74;100.00;95313.88;5071816;28;20424;-75
2022/05/24 01:20:31;;;;;;;4.53;3.30;;;;;;;15.82;100.00;95320.72;5071796;28;20528;-75
2022/05/24 01:23:11;;;;;;;3.50;3.13;;;;;;;15.77;100.00;95328.38;5054514;28;20488;-75
2022/05/24 01:26:15;;;;;;;3.37;2.70;;;;;;;15.63;100.00;95329.16;5072547;28;20458;-75
2022/05/24 01:28:55;;;;;;;7.30;2.80;;;;;;;15.58;100.00;95292.97;5020822;28;20425;-76
2022/05/24 01:31:24;;;;;;;3.10;2.87;;;;;;;15.65;100.00;95302.88;5053082;28;20485;-75
2022/05/24 01:36:40;;;;;;;5.73;2.30;;;;;;;15.39;100.00;95266.75;5071774;28;20527;-75
2022/05/24 01:39:10;;;;;;;6.63;4.00;;;;;;;15.62;100.00;95293.75;5071320;28;20444;-76
2022/05/24 01:41:42;;;;;;;5.50;2.60;;;;;;;15.38;100.00;95262.56;5072870;28;20900;-75
2022/05/24 01:44:11;;;;;;;4.13;3.00;;;;;;;15.68;100.00;95296.03;5080960;28;20447;-76
2022/05/24 01:46:44;;;;;;;6.17;2.47;;;;;;;15.53;100.00;95297.94;5059109;28;21051;-74
2022/05/24 01:49:17;;;;;;;3.03;2.37;;;;;;;15.48;100.00;95295.63;5055379;28;20499;-74
2022/05/24 01:51:59;;;;;;;13.60;2.80;;;;;;;15.42;100.00;95297.94;5071403;28;20494;-75
2022/05/24 01:54:29;;;;;;;3.80;3.40;;;;;;;15.31;100.00;95307.81;5071820;28;20499;-75
2022/05/24 01:57:13;;;;;;;7.87;3.20;;;;;;;15.11;100.00;95293.38;5078319;28;20446;-75
2022/05/24 01:59:45;;;;;;;8.80;3.10;;;;;;;15.09;100.00;95307.09;5090037;28;20424;-75
2022/05/24 02:02:11;;;;;;;3.60;2.57;;;;;;;14.76;100.00;95279.66;5071266;28;20562;-75
2022/05/24 02:04:38;;;;;;;7.90;3.63;;;;;;;14.72;100.00;95294.13;5072274;28;20428;-75
2022/05/24 02:07:15;;;;;;;4.00;2.60;;;;;;;14.74;100.00;95299.81;5088426;28;20445;-75
2022/05/24 02:09:44;;;;;;;2.80;2.60;;;;;;;14.78;100.00;95306.66;5071104;28;20517;-76
2022/05/24 02:12:20;;;;;;;3.77;3.20;;;;;;;14.50;100.00;95272.00;5071168;28;20494;-76
2022/05/24 02:15:00;;;;;;;3.93;3.40;;;;;;;14.83;100.00;95307.44;5035115;28;20548;-80
2022/05/24 02:17:40;;;;;;;4.13;3.00;;;;;;;14.76;100.00;95300.94;5074486;28;20530;-80
2022/05/24 02:20:11;;;;;;;3.40;2.80;;;;;;;14.96;100.00;95313.91;5078249;28;20447;-80
2022/05/24 02:22:38;;;;;;;4.97;2.90;;;;;;;14.74;100.00;95291.84;5078441;28;20452;-80
2022/05/24 02:25:05;;;;;;;2.67;2.47;;;;;;;14.93;100.00;95318.06;5077504;28;20456;-80
2022/05/24 02:27:40;;;;;;;3.40;2.70;;;;;;;14.52;100.00;95253.03;5077893;28;20466;-80
2022/05/24 02:30:07;;;;;;;3.73;2.60;;;;;;;14.72;100.00;95278.16;5074818;28;20449;-79
2022/05/24 02:32:34;;;;;;;4.97;2.93;;;;;;;14.95;100.00;95304.38;5081003;28;20463;-80
2022/05/24 02:35:00;;;;;;;5.30;3.60;;;;;;;14.82;100.00;95292.59;5098254;28;20461;-80
2022/05/24 02:37:28;;;;;;;5.90;3.40;;;;;;;14.89;100.00;95308.56;5102011;28;20450;-80
2022/05/24 02:42:40;;;;;;;4.40;3.17;;;;;;;14.82;100.00;95304.00;5103090;28;20443;-80
2022/05/24 02:45:07;;;;;;;3.80;2.80;;;;;;;14.31;100.00;95233.22;5101408;28;20435;-80
2022/05/24 02:47:34;;;;;;;4.47;3.00;;;;;;;14.58;100.00;95284.22;5101384;28;20523;-80
2022/05/24 02:50:01;;;;;;;7.50;3.23;;;;;;;14.44;100.00;95262.91;5084311;28;21012;-80
2022/05/24 02:52:27;;;;;;;5.03;3.97;;;;;;;14.69;100.00;95290.31;5084505;28;20455;-80
2022/05/24 02:54:54;;;;;;;5.13;3.00;;;;;;;14.47;100.00;95268.22;5101083;28;20471;-80
2022/05/24 02:57:21;;;;;;;5.43;3.03;;;;;;;14.60;100.00;95287.25;5084910;28;20431;-80
2022/05/24 02:59:47;;;;;;;4.00;2.80;;;;;;;14.35;100.00;95249.16;5085150;28;20497;-78
2022/05/24 03:02:14;;;;;;;4.30;3.17;;;;;;;14.58;100.00;95270.91;5083745;28;20935;-80
2022/05/24 03:04:42;;;;;;;3.80;2.83;;;;;;;14.29;100.00;95232.03;5098111;28;20489;-79
2022/05/24 03:09:54;;;;;;;4.83;3.27;;;;;;;14.75;100.00;95299.44;5064765;28;20427;-77
2022/05/24 03:15:07;;;;;;;4.70;2.67;;;;;;;14.72;100.00;95304.75;5095311;28;20419;-77
2022/05/24 03:17:34;;;;;;;5.90;2.80;;;;;;;14.72;100.00;95294.13;5094407;28;20446;-77
2022/05/24 03:20:02;;;;;;;4.70;2.60;;;;;;;14.61;100.00;95285.34;5094249;28;20463;-79
2022/05/24 03:22:28;;;;;;;4.83;2.80;;;;;;;14.66;100.00;95291.03;5077637;28;20464;-78
2022/05/24 03:24:55;;;;;;;7.50;2.97;;;;;;;14.60;100.00;95276.59;5084854;28;20447;-77
2022/05/24 03:27:22;;;;;;;3.13;2.77;;;;;;;14.58;100.00;95278.88;5060333;28;20500;-78
2022/05/24 03:29:49;;;;;;;2.97;2.77;;;;;;;14.67;100.00;95287.25;5073683;28;20886;-78
2022/05/24 03:32:18;;;;;;;3.80;2.73;;;;;;;14.74;100.00;95295.25;5075232;28;20535;-78
2022/05/24 03:34:45;;;;;;;4.17;2.90;;;;;;;14.81;100.00;95297.16;5085042;28;20488;-78
2022/05/24 03:37:12;;;;;;;4.97;3.03;;;;;;;14.76;100.00;95284.22;5074870;28;20427;-78
2022/05/24 03:39:39;;;;;;;2.97;2.70;;;;;;;14.55;100.00;95245.03;5073717;28;20951;-78
2022/05/24 03:42:06;;;;;;;4.23;3.93;;;;;;;14.93;100.00;95298.69;5080453;28;20440;-78
2022/05/24 03:44:33;;;;;;;7.03;6.40;;;;;;;14.89;100.00;95281.97;5060514;28;20926;-78
2022/05/24 03:47:00;;;;;;;6.60;5.27;;;;;;;14.90;100.00;95265.59;5072627;28;20558;-78
2022/05/24 03:49:26;;;;;;;3.73;3.43;;;;;;;15.18;100.00;95307.44;5073176;28;20440;-79
2022/05/24 03:51:53;;;;;;;3.20;2.90;;;;;;;14.90;100.00;95257.63;5075010;28;20862;-77
2022/05/24 03:54:20;;;;;;;4.73;2.67;;;;;;;15.24;100.00;95305.19;5090268;28;20475;-77
2022/05/24 03:59:32;;;;;;;3.73;2.80;;;;;;;15.10;100.00;95273.22;5073184;28;20531;-77
2022/05/24 04:01:59;;;;;;;3.27;2.60;;;;;;;15.21;100.00;95287.28;5072963;28;20488;-78
2022/05/24 04:04:25;;;;;;;2.80;2.60;;;;;;;15.40;100.00;95305.53;5075857;28;20875;-77
2022/05/24 04:06:52;;;;;;;3.60;2.77;;;;;;;15.12;100.00;95278.94;5084509;28;20452;-77
2022/05/24 04:09:19;;;;;;;8.07;3.13;;;;;;;15.33;100.00;95305.53;5060691;28;20472;-77
2022/05/24 04:11:45;;;;;;;6.73;3.30;;;;;;;15.10;100.00;95281.22;5082341;28;20534;-78
2022/05/24 04:14:12;;;;;;;4.43;2.70;;;;;;;15.27;100.00;95302.50;5059368;28;20476;-78
2022/05/24 04:16:39;;;;;;;4.43;2.93;;;;;;;15.31;100.00;95307.81;5072908;28;20888;-78
2022/05/24 04:19:06;;;;;;;3.17;2.87;;;;;;;15.05;100.00;95269.03;5092418;28;20435;-78
2022/05/24 04:21:32;;;;;;;3.20;3.00;;;;;;;15.15;100.00;95278.16;5086409;28;20480;-78
2022/05/24 04:23:59;;;;;;;3.53;2.93;;;;;;;15.42;100.00;95329.13;5077112;28;20445;-78
2022/05/24 04:26:26;;;;;;;6.63;3.40;;;;;;;15.31;100.00;95307.81;5077614;28;20460;-78
2022/05/24 04:28:52;;;;;;;6.17;3.03;;;;;;;15.68;100.00;95338.66;5063464;28;20444;-78
2022/05/24 04:31:19;;;;;;;7.70;5.10;;;;;;;15.60;100.00;95338.66;5081578;28;20478;-78
2022/05/24 04:33:46;;;;;;;3.80;3.40;;;;;;;15.46;100.00;95301.34;5078067;28;20976;-78
2022/05/24 04:36:13;;;;;;;3.53;3.03;;;;;;;15.35;100.00;95309.34;5090787;28;20455;-78
2022/05/24 04:38:39;;;;;;;5.27;2.80;;;;;;;15.19;100.00;95295.66;5100314;28;20443;-78
2022/05/24 04:43:51;;;;;;;6.00;2.33;;;;;;;15.29;100.00;95321.53;5087536;28;20812;-77
2022/05/24 04:46:18;;;;;;;3.17;2.90;;;;;;;15.43;100.00;95346.63;5072710;28;20521;-78
2022/05/24 04:48:45;;;;;;;4.60;4.13;;;;;;;15.13;100.00;95291.88;5074163;28;20432;-78
2022/05/24 04:51:12;;;;;;;5.00;3.43;;;;;;;15.48;100.00;95344.34;5072345;28;20420;-76
2022/05/24 04:53:39;;;;;;;5.47;3.10;;;;;;;15.34;100.00;95307.81;5073595;28;20486;-77
2022/05/24 04:56:06;;;;;;;3.77;3.07;;;;;;;15.70;100.00;95344.38;5071473;28;20431;-77
2022/05/24 04:58:33;;;;;;;2.87;2.67;;;;;;;15.50;100.00;95328.75;5091547;28;20844;-76
2022/05/24 05:00:59;;;;;;;5.83;3.53;;;;;;;15.34;100.00;95291.84;5084874;28;20524;-75
2022/05/24 05:03:26;;;;;;;5.10;3.00;;;;;;;15.63;100.00;95339.81;5071031;28;20517;-76
2022/05/24 05:05:53;;;;;;;4.57;2.87;;;;;;;15.58;100.00;95318.84;5071686;28;20488;-76
2022/05/24 05:08:21;;;;;;;2.87;2.20;;;;;;;15.66;100.00;95336.38;5062363;28;20524;-76
2022/05/24 05:10:50;;;;;;;3.90;2.50;;;;;;;15.62;100.00;95335.59;5077765;28;20539;-77
2022/05/24 05:13:17;;;;;;;4.13;3.10;;;;;;;15.05;100.00;95242.41;5071086;28;20502;-77
2022/05/24 05:15:44;;;;;;;2.73;2.53;;;;;;;15.47;100.00;95321.50;5070583;28;20464;-77
2022/05/24 05:18:13;;;;;;;2.90;2.70;;;;;;;15.65;100.00;95354.28;5051102;28;20444;-76
2022/05/24 05:20:42;;;;;;;2.90;2.63;;;;;;;15.52;100.00;95347.03;5071015;28;21034;-77
2022/05/24 05:23:12;;;;;;;4.87;2.57;;;;;;;15.41;100.00;95360.34;5070746;28;20509;-77
2022/05/24 05:25:47;;;;;;;3.13;2.60;;;;;;;15.36;100.00;95366.06;5070631;28;20444;-77
2022/05/24 05:28:15;;;;;;;2.43;2.10;;;;;;;15.33;100.00;95375.56;5071346;28;20443;-77
2022/05/24 05:33:28;;;;;;;3.80;2.30;;;;;;;14.93;100.00;95347.34;5073093;28;20432;-77
2022/05/24 05:35:54;;;;;;;2.43;2.23;;;;;;;15.00;100.00;95362.59;5071215;28;20433;-77
2022/05/24 05:38:21;;;;;;;1.90;1.80;;;;;;;14.97;100.00;95374.00;5073580;28;20427;-77
2022/05/24 05:40:53;;;;;;;2.47;2.27;;;;;;;15.18;100.00;95399.88;5071707;28;20463;-77
2022/05/24 05:43:21;;;;;;;4.63;2.23;;;;;;;14.81;100.00;95354.94;5072009;28;20458;-77
2022/05/24 05:45:59;;;;;;;3.27;2.47;;;;;;;14.86;100.00;95381.97;5071039;28;20444;-77
2022/05/24 05:48:26;;;;;;;3.50;2.20;;;;;;;14.87;100.00;95370.16;5070754;28;20489;-76
2022/05/24 05:50:54;;;;;;;2.70;2.20;;;;;;;15.15;100.00;95412.06;5087867;28;20539;-76
2022/05/24 05:53:21;;;;;;;2.83;2.23;;;;;;;15.20;100.00;95394.94;5071402;28;20513;-76
2022/05/24 05:55:48;;;;;;;2.77;2.50;;;;;;;15.02;100.00;95360.31;5072483;28;20482;-77
2022/05/24 05:58:14;;;;;;;2.30;1.93;;;;;;;15.15;100.00;95379.34;5072307;28;20555;-76
2022/05/24 06:00:42;;;;;;;2.77;2.47;;;;;;;15.26;100.00;95412.09;5073136;28;20535;-77
2022/05/24 06:03:08;;;;;;;2.40;2.20;;;;;;;15.25;100.00;95402.56;5075119;28;20510;-77
2022/05/24 06:05:36;;;;;;;2.90;2.50;;;;;;;15.36;100.00;95403.34;5073996;28;20436;-77
2022/05/24 06:08:03;;;;;;;5.17;2.33;;;;;;;15.31;100.00;95374.41;5076464;28;20477;-76
2022/05/24 06:10:30;;;;;;;3.10;2.87;;;;;;;15.31;100.00;95372.50;5091655;28;20428;-76
2022/05/24 06:12:59;;;;;;;2.57;2.10;;;;;;;15.65;100.00;95393.47;5094008;28;20467;-75
2022/05/24 06:15:27;;;;;;;2.30;2.10;;;;;;;15.73;100.00;95383.56;5095973;28;20979;-76
2022/05/24 06:17:54;;;;;;;2.27;2.07;;;;;;;15.82;100.00;95398.03;5094543;28;20458;-76
2022/05/24 06:20:27;;;;;;;2.57;2.40;;;;;;;15.78;100.00;95389.28;5081224;28;20952;-74
2022/05/24 06:22:55;;;;;;;9.10;3.03;;;;;;;15.90;100.00;95404.91;5075167;28;20472;-75
2022/05/24 06:25:22;;;;;;;2.47;2.20;;;;;;;16.19;100.00;95408.28;5057210;28;20933;-74
2022/05/24 06:27:49;;;;;;;3.00;2.10;;;;;;;16.03;100.00;95383.94;5073927;28;20480;-75
2022/05/24 06:30:17;;;;;;;2.40;2.10;;;;;;;16.13;100.00;95399.13;5087248;28;20469;-75
2022/05/24 06:32:43;;;;;;;1.90;1.80;;;;;;;15.90;100.00;95362.25;5073743;28;20562;-75
2022/05/24 06:35:10;;;;;;;2.33;2.13;;;;;;;16.00;100.00;95374.00;5073414;28;20498;-75
2022/05/24 06:37:36;;;;;;;5.03;2.30;;;;;;;16.12;100.00;95394.19;5073500;28;20421;-75
2022/05/24 06:40:04;;;;;;;2.67;2.40;;;;;;;16.09;100.00;95390.38;5075191;28;20475;-76
2022/05/24 06:42:31;;;;;;;2.63;2.30;;;;;;;16.11;100.00;95414.00;5086177;28;20476;-74
2022/05/24 06:44:57;;;;;;;3.00;2.80;;;;;;;16.15;100.00;95433.41;5073593;28;20432;-74
2022/05/24 06:47:24;;;;;;;3.67;2.50;;;;;;;16.13;100.00;95431.13;5073436;28;20547;-75
2022/05/24 06:49:50;;;;;;;3.13;2.93;;;;;;;15.87;100.00;95400.31;5090025;28;20523;-74
2022/05/24 06:52:18;;;;;;;2.23;2.03;;;;;;;15.98;100.00;95445.63;5083435;28;20545;-74
2022/05/24 06:54:44;;;;;;;2.23;2.03;;;;;;;15.77;100.00;95457.06;5059949;28;20481;-75
2022/05/24 06:57:11;;;;;;;3.40;2.27;;;;;;;15.70;100.00;95461.63;5073481;28;20928;-74
2022/05/24 07:02:25;;;;;;;3.43;1.90;;;;;;;15.21;100.00;95383.16;5074263;28;21041;-75
2022/05/24 07:05:00;;;;;;;3.00;1.97;;;;;;;15.76;100.00;95454.75;5073102;28;20425;-74
2022/05/24 07:07:28;;;;;;;2.53;2.33;;;;;;;15.71;100.00;95471.91;5077429;28;20542;-75
2022/05/24 07:09:56;;;;;;;2.40;2.20;;;;;;;15.85;100.00;95481.81;5073041;28;20537;-75
2022/05/24 07:12:23;;;;;;;2.63;2.20;;;;;;;15.84;100.00;95486.38;5071827;28;21050;-75
2022/05/24 07:14:50;;;;;;;6.83;2.40;;;;;;;15.76;100.00;95460.09;5081004;28;20443;-75
2022/05/24 07:17:18;;;;;;;4.37;2.43;;;;;;;15.48;100.00;95434.91;5077714;28;20427;-75
2022/05/24 07:19:46;;;;;;;2.83;2.17;;;;;;;15.87;100.00;95444.88;5074127;28;20441;-75
2022/05/24 07:22:14;;;;;;;3.43;2.43;;;;;;;16.03;100.00;95477.25;5071495;28;20486;-75
2022/05/24 07:24:41;;;;;;;4.67;2.63;;;;;;;15.96;100.00;95471.91;5072866;28;20544;-75
2022/05/24 07:27:12;;;;;;;6.53;2.80;;;;;;;15.98;100.00;95501.63;5074728;28;20467;-75
2022/05/24 07:29:39;;;;;;;2.23;2.10;;;;;;;15.65;100.00;95465.44;5093287;28;20860;-75
2022/05/24 07:32:07;;;;;;;2.23;2.03;;;;;;;15.83;100.00;95476.09;5079606;28;20502;-77
2022/05/24 07:34:35;;;;;;;2.40;2.20;;;;;;;16.08;100.00;95482.19;5082962;28;21003;-77
2022/05/24 07:37:04;;;;;;;2.80;2.30;;;;;;;16.21;100.00;95485.22;5086133;28;20789;-77
2022/05/24 07:39:31;;;;;;;4.70;2.97;;;;;;;16.05;100.00;95450.19;5085067;28;20780;-77
2022/05/24 07:47:41;;;;;;;2.40;2.20;;;;;;;16.31;100.00;95463.13;5052605;28;20479;-77
2022/05/24 07:50:09;;;;;;;2.23;2.10;;;;;;;16.58;100.00;95502.72;5086066;28;20468;-77
2022/05/24 07:52:35;;;;;;;3.67;2.30;;;;;;;16.41;100.00;95486.31;5083881;28;20456;-76
2022/05/24 07:55:03;;;;;;;2.87;2.57;;;;;;;16.53;100.00;95504.59;5073973;28;21026;-76
2022/05/24 07:57:30;;;;;;;2.90;2.70;;;;;;;16.20;100.00;95427.69;5073410;28;20841;-76
2022/05/24 08:00:03;;;;;;;2.00;1.90;;;;;;;16.43;100.00;95480.63;5073117;28;20436;-76
2022/05/24 08:02:38;;;;;;;2.10;2.00;;;;;;;16.41;100.00;95496.25;5072895;28;20444;-78
2022/05/24 08:05:06;;;;;;;3.10;2.90;;;;;;;16.32;100.00;95493.97;5067657;28;20498;-77
2022/05/24 08:07:33;;;;;;;2.20;2.03;;;;;;;16.26;100.00;95492.84;5087604;28;20531;-78
2022/05/24 08:09:59;;;;;;;3.07;2.57;;;;;;;16.30;100.00;95498.94;5069453;28;20486;-76
2022/05/24 08:12:26;;;;;;;4.47;3.07;;;;;;;16.49;100.00;95497.75;5075387;28;20471;-77
2022/05/24 08:14:53;;;;;;;3.00;2.13;;;;;;;16.41;100.00;95469.56;5085368;28;20425;-76
2022/05/24 08:17:19;;;;;;;3.23;2.93;;;;;;;16.78;100.00;95491.22;5073792;28;20867;-75
2022/05/24 08:19:46;;;;;;;2.97;2.70;;;;;;;17.06;100.00;95509.06;5071739;28;20528;-76
2022/05/24 08:22:13;;;;;;;2.40;2.20;;;;;;;17.01;100.00;95536.19;5056880;28;20456;-76
2022/05/24 08:24:40;;;;;;;2.53;2.30;;;;;;;16.73;100.00;95504.22;5091774;28;20431;-76
2022/05/24 08:27:08;;;;;;;2.70;2.50;;;;;;;16.65;100.00;95502.69;5091589;28;20462;-77
2022/05/24 08:29:35;;;;;;;2.37;2.27;;;;;;;16.67;100.00;95511.84;5074775;28;20440;-76
2022/05/24 08:32:02;;;;;;;2.87;2.50;;;;;;;16.41;100.00;95478.31;5089206;28;20468;-76
2022/05/24 08:34:31;;;;;;;2.37;2.17;;;;;;;16.40;100.00;95524.84;5071457;28;20523;-76
2022/05/24 08:36:58;;;;;;;2.97;2.77;;;;;;;15.94;100.00;95447.53;5071219;28;20456;-76
2022/05/24 08:39:25;;;;;;;4.20;2.57;;;;;;;16.31;100.00;95526.38;5073556;28;20434;-77
2022/05/24 08:41:58;;;;;;;3.10;2.90;;;;;;;16.28;100.00;95519.88;5088759;28;20521;-76
2022/05/24 08:50:10;;;;;;;2.50;2.30;;;;;;;16.20;100.00;95521.06;5093083;28;20988;-76
2022/05/24 08:52:43;;;;;;;2.87;2.40;;;;;;;16.20;100.00;95521.81;5092536;28;20472;-76
2022/05/24 08:55:12;;;;;;;2.37;2.17;;;;;;;16.14;100.00;95499.31;5091021;28;20419;-76
2022/05/24 08:57:49;;;;;;;5.37;2.20;;;;;;;16.43;100.00;95539.34;5091373;28;20454;-76
2022/05/24 09:00:21;;;;;;;2.57;2.37;;;;;;;16.36;100.00;95545.44;5090599;28;20435;-76
2022/05/24 09:02:48;;;;;;;2.30;2.10;;;;;;;16.16;100.00;95509.59;5056531;28;20472;-76
2022/05/24 09:05:19;;;;;;;2.40;2.20;;;;;;;16.25;100.00;95501.97;5090996;28;20427;-76
2022/05/24 09:07:59;;;;;;;2.37;2.17;;;;;;;16.30;100.00;95490.94;5087624;28;20448;-76
2022/05/24 09:10:33;;;;;;;2.47;2.27;;;;;;;16.43;100.00;95534.00;5070641;28;20784;-76
2022/05/24 09:13:08;;;;;;;2.80;2.60;;;;;;;16.65;100.00;95524.03;5073636;28;20502;-76
2022/05/24 09:16:12;;;;;;;2.20;2.10;;;;;;;16.57;100.00;95538.56;5072782;28;20439;-77
2022/05/24 09:19:04;;;;;;;2.43;2.23;;;;;;;16.57;100.00;95530.53;5055763;28;20539;-77
2022/05/24 09:21:33;;;;;;;2.27;2.03;;;;;;;16.42;100.00;95532.44;5091630;28;20837;-76
2022/05/24 09:24:03;;;;;;;1.67;1.57;;;;;;;16.66;100.00;95547.66;5090887;28;20450;-76
2022/05/24 09:26:32;;;;;;;3.50;2.80;;;;;;;16.63;100.00;95512.97;5093064;28;20519;-76
2022/05/24 09:29:12;;;;;;;2.27;2.07;;;;;;;17.01;100.00;95535.41;5092405;28;21006;-76
2022/05/24 09:31:49;;;;;;;2.40;2.20;;;;;;;17.46;100.00;95570.34;5073742;28;20554;-76
2022/05/24 09:34:18;;;;;;;5.83;2.83;;;;;;;17.38;100.00;95570.38;5090716;28;20431;-76
2022/05/24 09:36:54;;;;;;;2.60;2.30;;;;;;;17.40;100.00;95578.78;5075958;28;20471;-76
2022/05/24 09:39:24;;;;;;;2.53;2.33;;;;;;;17.46;100.00;95567.66;5070279;28;20999;-75
2022/05/24 09:41:57;;;;;;;3.53;2.70;;;;;;;17.67;100.00;95575.59;5070384;28;20549;-75
2022/05/24 09:44:25;;;;;;;3.07;2.80;;;;;;;17.59;100.00;95576.78;5069844;28;20497;-75
2022/05/24 09:46:52;;;;;;;2.70;1.97;;;;;;;17.69;100.00;95571.41;5053183;28;20437;-75
2022/05/24 09:49:22;;;;;;;2.10;1.90;;;;;;;17.13;100.00;95602.53;5087901;28;20479;-80
2022/05/24 09:51:56;;;;;;;3.33;1.90;;;;;;;17.07;100.00;95596.06;5075076;28;20499;-78
2022/05/24 09:54:28;;;;;;;3.17;2.37;;;;;;;16.91;100.00;95606.41;5076975;28;20512;-79
2022/05/24 09:57:03;;;;;;;2.63;2.43;;;;;;;16.71;100.00;95566.00;5084227;28;20459;-78
2022/05/24 09:59:31;;;;;;;5.87;2.10;;;;;;;16.74;100.00;95599.94;5097210;28;21768;-78
2022/05/24 10:01:57;;;;;;;2.60;2.40;;;;;;;16.62;100.00;95600.31;5082470;28;21051;-79
2022/05/24 10:04:27;;;;;;;3.20;2.90;;;;;;;16.75;100.00;95606.81;5077899;28;20456;-78
2022/05/24 10:07:08;;;;;;;3.00;2.47;;;;;;;16.80;100.00;95600.31;5060741;28;20437;-79
2022/05/24 10:09:53;;;;;;;4.00;2.40;;;;;;;16.41;100.00;95542.38;5097033;28;20441;-79
2022/05/24 10:12:39;;;;;;;2.73;2.47;;;;;;;16.73;100.00;95600.31;5096849;28;20542;-78
2022/05/24 10:15:24;;;;;;;2.57;2.37;;;;;;;16.70;100.00;95614.44;5097327;28;21005;-79
2022/05/24 10:18:15;;;;;;;2.70;2.50;;;;;;;16.69;100.00;95619.00;5057496;28;20436;-78
2022/05/24 10:21:09;;;;;;;2.53;2.33;;;;;;;16.65;100.00;95588.84;5062593;28;20464;-78
2022/05/24 10:23:48;;;;;;;2.47;2.27;;;;;;;16.89;100.00;95611.38;5096635;28;20443;-78
2022/05/24 10:26:34;;;;;;;2.20;2.00;;;;;;;17.03;100.00;95615.91;5048686;28;20964;-79
2022/05/24 10:29:21;;;;;;;2.57;2.37;;;;;;;16.72;100.00;95578.22;5076521;28;20517;-79
2022/05/24 10:31:54;;;;;;;2.20;2.00;;;;;;;16.84;100.00;95623.19;5092293;28;20856;-79
2022/05/24 10:40:37;;;;;;;3.70;2.40;;;;;;;16.43;100.00;95628.16;5076722;28;20958;-79
2022/05/24 10:43:12;;;;;;;3.50;1.90;;;;;;;16.14;100.00;95621.25;5076910;28;20887;-80
2022/05/24 10:45:51;;;;;;;3.60;2.43;;;;;;;15.73;100.00;95599.44;5074828;28;20523;-80
2022/05/24 10:48:22;;;;;;;2.70;2.50;;;;;;;15.74;100.00;95639.06;5087700;28;20490;-79
2022/05/24 10:51:11;;;;;;;2.77;2.57;;;;;;;15.51;100.00;95652.66;5072397;28;20499;-80
2022/05/24 10:53:54;;;;;;;3.63;2.80;;;;;;;15.08;100.00;95662.31;5074393;28;20511;-79
2022/05/24 10:56:26;;;;;;;5.90;3.20;;;;;;;14.85;100.00;95638.59;5073930;28;20527;-80
2022/05/24 10:59:03;;;;;;;2.63;1.87;;;;;;;14.50;100.00;95585.88;5075843;28;20475;-78
2022/05/24 11:01:33;;;;;;;1.53;1.40;;;;;;;14.88;100.00;95629.09;5058766;28;20558;-78
2022/05/24 11:04:38;;;;;;;1.93;1.40;;;;;;;15.02;100.00;95650.47;5082855;28;20440;-78
2022/05/24 11:07:19;;;;;;;2.47;1.50;;;;;;;15.01;100.00;95631.09;5047560;28;20443;-77
2022/05/24 11:09:53;;;;;;;2.70;1.10;;;;;;;15.15;100.00;95672.25;5063617;28;20448;-78
2022/05/24 11:12:32;;;;;;;2.30;1.27;;;;;;;15.20;100.00;95663.91;5059847;28;20480;-78
2022/05/24 11:15:13;;;;;;;1.30;1.20;;;;;;;15.17;100.00;95632.69;5073863;28;20437;-78
2022/05/24 11:17:40;;;;;;;2.40;1.47;;;;;;;15.13;100.00;95632.69;5073171;28;20475;-77
2022/05/24 11:20:08;;;;;;;4.20;1.80;;;;;;;15.43;100.00;95650.31;5084644;28;20526;-78
2022/05/24 11:22:44;;;;;;;1.77;1.33;;;;;;;15.42;100.00;95659.47;5075478;28;20459;-77
2022/05/24 11:25:11;;;;;;;1.60;1.30;;;;;;;15.23;100.00;95658.63;5073362;28;21035;-77
2022/05/24 11:27:41;;;;;;;1.40;1.30;;;;;;;15.23;100.00;95666.59;5080960;28;20462;-76
2022/05/24 11:30:30;;;;;;;3.00;1.47;;;;;;;15.26;100.00;95657.09;5092125;28;20486;-76
2022/05/24 11:33:02;;;;;;;2.63;1.80;;;;;;;15.42;100.00;95672.78;5072593;28;20456;-78
2022/05/24 11:35:35;;;;;;;5.93;1.40;;;;;;;15.24;100.00;95646.81;5077973;28;20981;-76
2022/05/24 11:38:28;;;;;;;2.93;1.50;;;;;;;15.52;100.00;95685.41;5092839;28;20427;-76
2022/05/24 11:40:55;;;;;;;2.20;2.00;;;;;;;15.73;100.00;95696.16;5074171;28;20545;-78
2022/05/24 11:43:43;;;;;;;2.60;1.70;;;;;;;15.70;100.00;95691.59;5077866;28;21029;-77
2022/05/24 11:46:37;;;;;;;5.13;3.20;;;;;;;15.69;100.00;95687.41;5089717;28;20428;-78
2022/05/24 11:49:18;;;;;;;2.40;2.10;;;;;;;15.96;100.00;95688.63;5096828;28;20535;-79
2022/05/24 11:51:46;;;;;;;2.37;1.40;;;;;;;15.72;100.00;95694.63;5076562;28;20526;-77
2022/05/24 11:54:19;;;;;;;1.27;1.17;;;;;;;15.66;100.00;95694.25;5072592;28;20519;-77
2022/05/24 11:57:01;;;;;;;1.60;1.33;;;;;;;15.75;100.00;95693.88;5073041;28;20841;-77
2022/05/24 11:59:40;;;;;;;2.20;2.00;;;;;;;16.06;100.00;95699.72;5087361;28;20434;-77
2022/05/24 12:02:19;;;;;;;1.53;1.37;;;;;;;16.17;100.00;95705.84;5088078;28;20457;-77
2022/05/24 12:08:25;;;;;;;1.50;1.20;;;;;;;16.18;100.00;95710.06;5071700;28;20490;-77
2022/05/24 12:11:04;;;;;;;2.63;1.40;;;;;;;16.52;100.00;95710.47;5074061;28;20488;-77
2022/05/24 12:13:38;;;;;;;1.40;1.30;;;;;;;17.21;100.00;95717.38;5080985;28;20444;-77
2022/05/24 12:16:26;;;;;;;2.83;1.47;;;;;;;16.72;100.00;95718.94;5072133;28;20433;-77
2022/05/24 12:18:58;;;;;;;2.37;1.07;;;;;;;16.51;100.00;95693.72;5071768;28;20429;-77
2022/05/24 12:21:55;;;;;;;1.87;1.67;;;;;;;16.20;100.00;95721.09;5065597;28;20903;-77
2022/05/24 12:24:23;;;;;;;1.70;1.40;;;;;;;16.23;100.00;95723.78;5077038;28;20956;-77